createdAt,value
2018-04-15T10:00:11.076Z,97616.06
2018-04-15T10:01:17.424Z,97616.81
2018-04-15T10:02:20.878Z,97562.78
2018-04-15T10:03:24.403Z,97612.92
2018-04-15T10:04:27.942Z,97614.05
2018-04-15T10:05:31.959Z,97616.12
2018-04-15T10:06:35.444Z,97617.24
2018-04-15T10:07:38.875Z,97614.27
2018-04-15T10:08:42.430Z,97524.78
2018-04-15T10:09:45.926Z,97615.02
2018-04-15T10:10:49.410Z,97616.57
2018-04-15T10:11:53.452Z,97609.13
2018-04-15T10:12:57.038Z,97611.70
2018-04-15T10:14:00.586Z,97579.45
2018-04-15T10:15:04.107Z,97609.89
2018-04-15T10:16:07.625Z,97610.16
2018-04-15T10:17:11.197Z,97607.02
2018-04-15T10:18:15.069Z,97610.47
2018-04-15T10:19:19.349Z,97574.37
2018-04-15T10:20:22.809Z,97610.64
2018-04-15T10:21:26.255Z,97599.88
2018-04-15T10:22:29.875Z,97598.03
2018-04-15T10:23:33.443Z,97602.63
2018-04-15T10:24:37.297Z,97585.39
2018-04-15T10:25:40.849Z,97430.55
2018-04-15T10:26:44.418Z,97606.73
2018-04-15T10:27:48.013Z,97557.15
2018-04-15T10:28:51.479Z,97606.95
2018-04-15T10:29:54.980Z,97604.88
2018-04-15T10:30:59.028Z,97601.22
2018-04-15T10:32:04.062Z,97601.17
2018-04-15T10:33:07.941Z,97602.63
2018-04-15T10:34:11.526Z,97603.32
2018-04-15T10:35:15.084Z,97599.44
2018-04-15T10:36:18.703Z,97599.38
2018-04-15T10:37:22.742Z,97557.79
2018-04-15T10:38:26.319Z,97599.26
2018-04-15T10:39:29.919Z,97607.53
2018-04-15T10:40:33.660Z,97525.69
2018-04-15T10:41:37.322Z,97553.23
2018-04-15T10:42:40.933Z,97602.95
2018-04-15T10:43:44.759Z,97609.58
2018-04-15T10:44:48.280Z,97603.73
2018-04-15T10:45:52.002Z,97607.31
2018-04-15T10:46:56.970Z,97604.22
2018-04-15T10:48:00.559Z,97613.03
2018-04-15T10:49:04.221Z,97466.40
2018-04-15T10:50:08.207Z,97610.58
2018-04-15T10:51:11.807Z,97607.69
2018-04-15T10:52:15.426Z,97628.96
2018-04-15T10:53:18.920Z,97611.48
2018-04-15T10:54:22.507Z,97609.13
2018-04-15T10:55:26.200Z,97526.58
2018-04-15T10:56:30.972Z,97608.77
2018-04-15T10:57:34.529Z,97609.09
2018-04-15T10:58:38.020Z,97608.02
2018-04-15T10:59:41.595Z,97619.08
2018-04-15T11:00:45.145Z,97602.08
2018-04-15T11:01:48.699Z,97607.28
2018-04-15T11:02:52.843Z,97614.57
2018-04-15T11:03:56.398Z,97518.42
2018-04-15T11:04:59.918Z,97599.19
2018-04-15T11:06:03.408Z,97597.80
2018-04-15T11:07:06.849Z,97593.92
2018-04-15T11:08:10.375Z,97596.07
2018-04-15T11:09:14.238Z,97590.35
2018-04-15T11:10:17.814Z,97591.99
2018-04-15T11:11:21.369Z,97575.08
2018-04-15T11:12:24.958Z,97500.52
2018-04-15T11:13:28.527Z,97588.03
2018-04-15T11:14:32.099Z,97590.27
2018-04-15T11:15:36.016Z,97582.65
2018-04-15T11:16:39.519Z,97583.13
2018-04-15T11:17:43.098Z,97581.27
2018-04-15T11:18:46.587Z,97587.18
2018-04-15T11:19:50.078Z,97500.41
2018-04-15T11:20:53.690Z,97566.32
2018-04-15T11:21:57.727Z,97577.14
2018-04-15T11:23:01.200Z,97577.78
2018-04-15T11:24:04.607Z,97551.20
2018-04-15T11:25:08.027Z,97571.80
2018-04-15T11:26:11.451Z,97588.85
2018-04-15T11:27:14.937Z,97574.00
2018-04-15T11:28:18.865Z,97574.00
2018-04-15T11:29:22.328Z,97573.61
2018-04-15T11:30:25.821Z,97571.11
2018-04-15T11:31:29.333Z,97575.76
2018-04-15T11:32:32.934Z,97575.77
2018-04-15T11:33:36.994Z,97463.47
2018-04-15T11:34:40.563Z,97574.59
2018-04-15T11:35:44.770Z,97572.19
2018-04-15T11:36:48.356Z,97577.22
2018-04-15T11:37:51.925Z,97570.72
2018-04-15T11:38:55.459Z,97575.81
2018-04-15T11:39:59.421Z,97573.73
2018-04-15T11:41:02.920Z,97548.14
2018-04-15T11:42:06.509Z,97566.63
2018-04-15T11:43:10.036Z,97560.81
2018-04-15T11:44:13.563Z,97564.60
2018-04-15T11:45:17.248Z,97502.47
2018-04-15T11:46:21.217Z,97572.92
2018-04-15T11:47:24.728Z,97568.05
2018-04-15T11:48:28.291Z,97567.16
2018-04-15T11:49:31.947Z,97563.14
2018-04-15T11:50:35.488Z,97566.51
2018-04-15T11:51:39.164Z,97563.79
2018-04-15T11:52:42.920Z,97554.02
2018-04-15T11:53:46.464Z,97562.45
2018-04-15T11:54:50.009Z,97554.48
2018-04-15T11:55:53.567Z,97552.25
2018-04-15T11:56:57.095Z,97482.58
2018-04-15T11:58:00.676Z,97476.81
2018-04-15T11:59:04.684Z,97556.42
2018-04-15T12:00:08.084Z,97463.70
2018-04-15T12:01:11.597Z,97562.84
2018-04-15T12:02:15.087Z,97553.92
2018-04-15T12:03:18.588Z,97561.55
2018-04-15T12:04:22.080Z,97551.12
2018-04-15T12:05:25.938Z,97550.73
2018-04-15T12:06:29.488Z,97549.79
2018-04-15T12:07:32.983Z,97549.88
2018-04-15T12:08:36.447Z,97549.22
2018-04-15T12:09:39.919Z,97546.25
2018-04-15T12:10:43.380Z,97553.83
2018-04-15T12:11:49.210Z,97548.97
2018-04-15T12:12:53.171Z,97544.00
2018-04-15T12:13:56.857Z,97541.22
2018-04-15T12:15:00.638Z,97515.92
2018-04-15T12:16:04.201Z,97540.56
2018-04-15T12:17:07.627Z,97542.86
2018-04-15T12:18:11.474Z,97537.47
2018-04-15T12:19:15.026Z,97538.97
2018-04-15T12:20:18.800Z,97532.68
2018-04-15T12:21:22.403Z,97533.89
2018-04-15T12:22:25.909Z,97534.92
2018-04-15T12:23:30.673Z,97530.10
2018-04-15T12:24:34.689Z,97528.67
2018-04-15T12:25:38.299Z,97526.53
2018-04-15T12:26:41.936Z,97532.25
2018-04-15T12:27:45.460Z,97532.30
2018-04-15T12:28:49.085Z,97540.78
2018-04-15T12:29:52.618Z,97528.03
2018-04-15T12:30:56.833Z,97537.97
2018-04-15T12:32:00.545Z,97535.70
2018-04-15T12:33:03.947Z,97532.90
2018-04-15T12:34:07.394Z,97493.09
2018-04-15T12:35:10.875Z,97530.02
2018-04-15T12:36:14.740Z,97534.97
2018-04-15T12:37:18.826Z,97534.06
2018-04-15T12:38:22.371Z,97536.47
2018-04-15T12:39:25.867Z,97532.73
2018-04-15T12:40:29.344Z,97517.73
2018-04-15T12:41:32.844Z,97527.00
2018-04-15T12:42:36.335Z,97522.05
2018-04-15T12:43:40.164Z,97523.05
2018-04-15T12:44:43.675Z,97525.50
2018-04-15T12:45:47.191Z,97518.91
2018-04-15T12:46:50.720Z,97519.69
2018-04-15T12:47:55.260Z,97516.54
2018-04-15T12:48:58.829Z,97517.06
2018-04-15T12:50:02.819Z,97435.84
2018-04-15T12:51:06.311Z,97518.52
2018-04-15T12:52:09.819Z,97515.20
2018-04-15T12:53:13.332Z,97522.40
2018-04-15T12:54:16.819Z,97510.08
2018-04-15T12:55:20.305Z,97506.03
2018-04-15T12:56:24.282Z,97507.36
2018-04-15T12:57:27.885Z,97500.56
2018-04-15T12:58:31.345Z,97508.83
2018-04-15T12:59:36.592Z,97500.78
2018-04-15T13:00:40.089Z,97334.28
2018-04-15T13:01:43.581Z,97494.14
2018-04-15T13:02:47.711Z,97417.56
2018-04-15T13:03:51.273Z,97497.89
2018-04-15T13:04:55.106Z,97511.24
2018-04-15T13:05:58.635Z,97500.69
2018-04-15T13:07:02.272Z,97494.01
2018-04-15T13:08:05.771Z,97493.36
2018-04-15T13:09:09.641Z,97484.66
2018-04-15T13:10:13.139Z,97487.64
2018-04-15T13:11:16.554Z,97482.55
2018-04-15T13:12:20.113Z,97435.89
2018-04-15T13:13:23.621Z,97474.59
2018-04-15T13:14:27.197Z,97469.11
2018-04-15T13:15:31.239Z,97476.52
2018-04-15T13:16:34.750Z,97472.78
2018-04-15T13:17:38.319Z,97475.36
2018-04-15T13:18:41.823Z,97449.45
2018-04-15T13:19:45.360Z,97474.59
2018-04-15T13:20:48.906Z,97464.77
2018-04-15T13:21:52.845Z,97465.45
2018-04-15T13:22:56.346Z,97467.87
2018-04-15T13:23:59.998Z,97465.67
2018-04-15T13:25:03.603Z,97462.05
2018-04-15T13:26:07.208Z,97463.48
2018-04-15T13:27:10.813Z,97463.44
2018-04-15T13:28:14.681Z,97468.55
2018-04-15T13:29:19.053Z,97464.12
2018-04-15T13:30:22.558Z,97467.78
2018-04-15T13:31:26.131Z,97455.80
2018-04-15T13:32:29.831Z,97474.07
2018-04-15T13:33:33.625Z,97379.42
2018-04-15T13:34:37.428Z,97462.01
2018-04-15T13:36:52.728Z,97349.13
2018-04-15T13:37:56.226Z,97455.48
2018-04-15T13:38:59.903Z,97451.42
2018-04-15T13:40:03.441Z,97455.56
2018-04-15T13:41:07.350Z,97386.77
2018-04-15T13:42:10.878Z,97447.55
2018-04-15T13:43:14.385Z,97311.73
2018-04-15T13:44:17.911Z,97442.63
2018-04-15T13:45:21.465Z,97445.61
2018-04-15T13:46:25.076Z,97441.13
2018-04-15T13:47:28.963Z,97437.80
2018-04-15T13:48:32.605Z,97432.20
2018-04-15T13:49:36.151Z,97431.30
2018-04-15T13:50:39.693Z,97440.83
2018-04-15T13:51:43.259Z,97435.88
2018-04-15T13:52:47.205Z,97433.89
2018-04-15T13:53:51.139Z,97434.70
2018-04-15T13:54:54.672Z,97436.47
2018-04-15T13:55:58.184Z,97436.89
2018-04-15T13:57:01.654Z,97427.27
2018-04-15T13:58:05.114Z,97433.22
2018-04-15T13:59:08.572Z,97429.09
2018-04-15T14:00:12.372Z,97430.98
2018-04-15T14:01:16.445Z,97307.25
2018-04-15T14:02:20.076Z,97430.38
2018-04-15T14:03:23.587Z,97427.27
2018-04-15T14:04:27.143Z,97426.03
2018-04-15T14:05:31.371Z,97344.78
2018-04-15T14:06:35.387Z,97431.80
2018-04-15T14:07:38.910Z,97421.70
2018-04-15T14:08:42.468Z,97425.37
2018-04-15T14:09:46.083Z,97421.94
2018-04-15T14:10:50.587Z,97429.04
2018-04-15T14:11:54.195Z,97419.69
2018-04-15T14:12:58.192Z,97421.33
2018-04-15T14:14:01.736Z,97423.22
2018-04-15T14:15:05.276Z,97417.70
2018-04-15T14:16:08.802Z,97348.67
2018-04-15T14:17:12.377Z,97380.39
2018-04-15T14:18:15.975Z,97423.25
2018-04-15T14:19:19.892Z,97419.89
2018-04-15T14:20:23.520Z,97363.93
2018-04-15T14:21:27.149Z,97408.65
2018-04-15T14:22:30.758Z,97414.95
2018-04-15T14:23:34.286Z,97415.38
2018-04-15T14:24:37.851Z,97413.13
2018-04-15T14:25:41.975Z,97414.42
2018-04-15T14:26:45.659Z,97398.11
2018-04-15T14:27:49.219Z,97412.28
2018-04-15T14:28:52.827Z,97410.39
2018-04-15T14:29:56.387Z,97412.60
2018-04-15T14:30:59.925Z,97387.98
2018-04-15T14:32:03.828Z,97407.36
2018-04-15T14:33:07.800Z,97405.72
2018-04-15T14:34:11.374Z,97405.91
2018-04-15T14:35:14.904Z,97401.42
2018-04-15T14:36:18.449Z,97395.29
2018-04-15T14:37:22.010Z,97398.57
2018-04-15T14:38:25.976Z,97404.81
2018-04-15T14:39:29.555Z,97403.23
2018-04-15T14:40:33.244Z,97403.01
2018-04-15T14:41:36.916Z,97405.59
2018-04-15T14:42:40.463Z,97364.41
2018-04-15T14:43:43.973Z,97402.33
2018-04-15T14:44:47.859Z,97399.12
2018-04-15T14:45:51.411Z,97400.52
2018-04-15T14:46:55.689Z,97395.24
2018-04-15T14:47:59.198Z,97398.52
2018-04-15T14:49:02.794Z,97403.45
2018-04-15T14:50:06.326Z,97403.50
2018-04-15T14:51:10.179Z,97399.67
2018-04-15T14:52:13.770Z,97332.63
2018-04-15T14:53:17.342Z,97398.21
2018-04-15T14:54:20.856Z,97401.82
2018-04-15T14:55:24.393Z,97351.93
2018-04-15T14:56:27.904Z,97399.06
2018-04-15T14:57:31.723Z,97400.17
2018-04-15T14:58:35.256Z,97399.30
2018-04-15T14:59:38.916Z,97392.52
2018-04-15T15:00:42.454Z,97393.07
2018-04-15T15:01:45.956Z,97389.39
2018-04-15T15:02:49.462Z,97396.08
2018-04-15T15:03:53.311Z,97387.55
2018-04-15T15:04:56.925Z,97383.45
2018-04-15T15:06:00.441Z,97378.61
2018-04-15T15:07:04.052Z,97381.41
2018-04-15T15:08:07.572Z,97390.20
2018-04-15T15:09:11.066Z,97387.33
2018-04-15T15:10:15.082Z,97388.29
2018-04-15T15:11:19.430Z,97385.96
2018-04-15T15:12:22.937Z,97384.51
2018-04-15T15:13:26.530Z,97306.05
2018-04-15T15:14:30.053Z,97390.02
2018-04-15T15:15:33.599Z,97390.70
2018-04-15T15:16:37.573Z,97383.39
2018-04-15T15:17:41.086Z,97386.34
2018-04-15T15:18:44.624Z,97386.11
2018-04-15T15:19:48.158Z,97388.77
2018-04-15T15:20:51.712Z,97391.64
2018-04-15T15:21:55.272Z,97392.84
2018-04-15T15:22:59.147Z,97385.48
2018-04-15T15:24:02.778Z,97390.35
2018-04-15T15:25:06.355Z,97329.66
2018-04-15T15:26:09.876Z,97393.09
2018-04-15T15:27:13.442Z,97393.70
2018-04-15T15:28:17.048Z,97358.43
2018-04-15T15:29:20.556Z,97394.81
2018-04-15T15:30:24.004Z,97394.63
2018-04-15T15:31:28.236Z,97393.43
2018-04-15T15:32:31.808Z,97395.29
2018-04-15T15:33:35.309Z,97385.94
2018-04-15T15:34:39.141Z,97387.84
2018-04-15T15:35:42.657Z,97398.82
2018-04-15T15:36:46.159Z,97394.19
2018-04-15T15:37:49.701Z,97391.81
2018-04-15T15:38:53.233Z,97389.45
2018-04-15T15:39:56.782Z,97354.78
2018-04-15T15:41:00.681Z,97386.07
2018-04-15T15:42:04.121Z,97389.29
2018-04-15T15:43:07.631Z,97369.38
2018-04-15T15:44:11.146Z,97334.48
2018-04-15T15:45:14.860Z,97379.66
2018-04-15T15:46:18.481Z,97388.25
2018-04-15T15:47:22.371Z,97349.85
2018-04-15T15:48:25.863Z,97293.67
2018-04-15T15:49:29.420Z,97346.50
2018-04-15T15:50:32.852Z,97389.20
2018-04-15T15:51:36.267Z,97399.88
2018-04-15T15:52:39.672Z,97386.52
2018-04-15T15:53:43.550Z,97387.34
2018-04-15T15:54:46.994Z,97265.86
2018-04-15T15:55:50.385Z,97383.52
2018-04-15T15:56:53.860Z,97383.67
2018-04-15T15:57:57.350Z,97388.88
2018-04-15T15:59:00.879Z,97376.43
2018-04-15T16:00:04.915Z,97381.05
2018-04-15T16:01:08.407Z,97380.42
2018-04-15T16:02:12.157Z,97379.31
2018-04-15T16:03:15.667Z,97375.25
2018-04-15T16:04:19.259Z,97370.86
2018-04-15T16:05:22.768Z,97369.79
2018-04-15T16:06:26.654Z,97366.94
2018-04-15T16:07:30.200Z,97370.84
2018-04-15T16:08:33.708Z,97372.83
2018-04-15T16:09:37.256Z,97375.20
2018-04-15T16:10:40.815Z,97350.01
2018-04-15T16:11:44.323Z,97378.51
2018-04-15T16:12:47.951Z,97384.58
2018-04-15T16:13:51.406Z,97353.30
2018-04-15T16:14:55.017Z,97382.81
2018-04-15T16:15:58.484Z,97380.75
2018-04-15T16:17:01.991Z,97379.12
2018-04-15T16:18:05.443Z,97377.22
2018-04-15T16:19:08.897Z,97379.12
2018-04-15T16:20:12.424Z,97381.70
2018-04-15T16:21:15.928Z,97380.50
2018-04-15T16:22:19.434Z,97378.17
2018-04-15T16:23:23.280Z,97379.59
2018-04-15T16:24:27.002Z,97378.91
2018-04-15T16:25:30.518Z,97382.92
2018-04-15T16:26:34.016Z,97285.80
2018-04-15T16:27:37.991Z,97375.17
2018-04-15T16:28:41.491Z,97373.80
2018-04-15T16:29:46.349Z,97360.83
2018-04-15T16:30:49.872Z,97378.70
2018-04-15T16:31:53.428Z,97380.19
2018-04-15T16:32:56.918Z,97373.80
2018-04-15T16:34:00.774Z,97075.76
2018-04-15T16:35:04.305Z,97376.20
2018-04-15T16:36:08.201Z,97375.73
2018-04-15T16:37:11.712Z,97367.66
2018-04-15T16:38:15.272Z,97376.20
2018-04-15T16:39:18.787Z,97372.53
2018-04-15T16:40:22.327Z,97375.45
2018-04-15T16:41:25.841Z,97312.78
2018-04-15T16:42:29.734Z,97297.82
2018-04-15T16:43:33.249Z,97372.83
2018-04-15T16:44:36.756Z,97379.21
2018-04-15T16:45:40.231Z,97375.02
2018-04-15T16:46:43.717Z,97382.23
2018-04-15T16:47:47.305Z,97380.80
2018-04-15T16:48:51.225Z,97340.69
2018-04-15T16:49:54.723Z,97360.28
2018-04-15T16:50:58.259Z,97378.80
2018-04-15T16:52:01.774Z,97381.86
2018-04-15T16:53:05.293Z,97382.20
2018-04-15T16:54:08.789Z,97386.52
2018-04-15T16:55:12.909Z,97387.95
2018-04-15T16:56:16.414Z,97389.64
2018-04-15T16:57:20.014Z,97388.88
2018-04-15T16:58:23.511Z,97393.52
2018-04-15T16:59:26.899Z,97396.33
2018-04-15T17:00:30.440Z,97395.72
2018-04-15T17:01:34.428Z,97354.44
2018-04-15T17:02:38.050Z,97316.31
2018-04-15T17:03:41.572Z,97392.12
2018-04-15T17:04:45.088Z,97197.00
2018-04-15T17:05:48.578Z,97357.72
2018-04-15T17:06:52.610Z,97398.37
2018-04-15T17:07:56.614Z,97394.45
2018-04-15T17:09:00.118Z,97339.04
2018-04-15T17:10:03.605Z,97396.33
2018-04-15T17:11:07.101Z,97381.03
2018-04-15T17:12:10.621Z,97393.45
2018-04-15T17:13:14.192Z,97392.77
2018-04-15T17:14:18.022Z,97392.22
2018-04-15T17:15:21.972Z,97380.64
2018-04-15T17:16:25.538Z,97395.74
2018-04-15T17:17:29.412Z,97393.59
2018-04-15T17:18:32.840Z,97392.47
2018-04-15T17:19:36.220Z,97404.88
2018-04-15T17:20:40.000Z,97395.09
2018-04-15T17:21:43.521Z,97376.59
2018-04-15T17:22:47.128Z,97389.88
2018-04-15T17:23:50.643Z,97390.17
2018-04-15T17:24:54.178Z,97387.13
2018-04-15T17:25:57.752Z,97314.80
2018-04-15T17:27:01.569Z,97393.23
2018-04-15T17:28:04.967Z,97393.94
2018-04-15T17:29:08.420Z,97396.65
2018-04-15T17:30:11.951Z,97390.76
2018-04-15T17:31:15.468Z,97385.51
2018-04-15T17:32:18.989Z,97400.08
2018-04-15T17:33:22.796Z,97398.34
2018-04-15T17:34:26.690Z,97399.58
2018-04-15T17:35:30.181Z,97404.44
2018-04-15T17:36:33.764Z,97404.82
2018-04-15T17:37:37.279Z,97390.60
2018-04-15T17:38:40.784Z,97375.77
2018-04-15T17:39:44.583Z,97407.77
2018-04-15T17:40:48.118Z,97397.73
2018-04-15T17:41:51.732Z,97377.24
2018-04-15T17:42:55.200Z,97415.28
2018-04-15T17:43:58.728Z,97409.95
2018-04-15T17:45:02.770Z,97407.23
2018-04-15T17:46:06.618Z,97411.92
2018-04-15T17:52:37.974Z,97413.55
2018-04-15T17:53:41.467Z,97400.56
2018-04-15T17:54:44.973Z,97387.41
2018-04-15T17:55:48.542Z,97408.19
2018-04-15T17:56:52.034Z,97403.76
2018-04-15T17:57:55.880Z,97412.86
2018-04-15T17:58:59.559Z,97384.94
2018-04-15T18:00:03.232Z,97320.19
2018-04-15T18:01:06.927Z,97412.00
2018-04-15T18:02:10.500Z,97411.78
2018-04-15T18:03:13.976Z,97362.23
2018-04-15T18:04:17.736Z,97412.43
2018-04-15T18:05:21.209Z,97418.45
2018-04-15T18:06:24.779Z,97417.22
2018-04-15T18:07:28.620Z,97354.34
2018-04-15T18:08:32.095Z,97388.69
2018-04-15T18:09:35.541Z,97376.01
2018-04-15T18:10:39.319Z,97403.53
2018-04-15T18:11:42.764Z,97417.93
2018-04-15T18:12:46.203Z,97415.98
2018-04-15T18:13:49.739Z,97410.36
2018-04-15T18:14:53.239Z,97405.98
2018-04-15T18:15:56.840Z,97410.64
2018-04-15T18:17:00.871Z,97388.91
2018-04-15T18:18:04.376Z,97424.41
2018-04-15T18:19:07.911Z,97422.59
2018-04-15T18:20:11.514Z,97420.49
2018-04-15T18:21:15.070Z,97426.02
2018-04-15T18:22:19.596Z,97426.70
2018-04-15T18:23:23.471Z,97322.16
2018-04-15T18:24:26.967Z,97429.59
2018-04-15T18:25:30.457Z,97423.14
2018-04-15T18:26:34.024Z,97429.59
2018-04-15T18:27:37.560Z,97426.65
2018-04-15T18:28:41.099Z,97427.08
2018-04-15T18:29:45.049Z,97334.36
2018-04-15T18:30:48.583Z,97422.56
2018-04-15T18:31:52.189Z,97418.86
2018-04-15T18:32:56.409Z,97421.83
2018-04-15T18:33:59.930Z,97429.59
2018-04-15T18:35:04.919Z,97271.16
2018-04-15T18:36:08.732Z,97380.92
2018-04-15T18:37:12.235Z,97420.20
2018-04-15T18:38:15.755Z,97407.26
2018-04-15T18:39:19.262Z,97421.75
2018-04-15T18:40:22.783Z,97371.73
2018-04-15T18:41:26.273Z,97424.02
2018-04-15T18:42:30.144Z,97424.02
2018-04-15T18:43:33.614Z,97422.59
2018-04-15T18:44:37.143Z,97427.61
2018-04-15T18:45:40.773Z,97411.77
2018-04-15T18:46:44.322Z,97424.27
2018-04-15T18:47:48.219Z,97327.95
2018-04-15T18:48:52.051Z,97426.60
2018-04-15T18:49:55.784Z,97431.61
2018-04-15T18:50:59.589Z,97429.41
2018-04-15T18:52:03.177Z,97406.70
2018-04-15T18:53:06.775Z,97408.47
2018-04-15T18:54:10.486Z,97403.95
2018-04-15T18:55:15.737Z,97436.83
2018-04-15T18:56:19.219Z,97437.13
2018-04-15T18:57:22.795Z,97439.75
2018-04-15T18:58:26.298Z,97442.60
2018-04-15T18:59:29.882Z,97442.60
2018-04-15T19:00:33.548Z,97431.00
2018-04-15T19:01:37.513Z,97443.35
2018-04-15T19:02:41.072Z,97445.37
2018-04-15T19:03:44.580Z,97405.91
2018-04-15T19:04:48.106Z,97376.31
2018-04-15T19:05:52.280Z,97384.58
2018-04-15T19:06:55.713Z,97440.61
2018-04-15T19:07:59.609Z,97439.93
2018-04-15T19:09:03.145Z,97435.80
2018-04-15T19:10:07.067Z,97441.01
2018-04-15T19:11:10.599Z,97441.44
2018-04-15T19:12:14.175Z,97404.30
2018-04-15T19:13:18.682Z,97438.67
2018-04-15T19:14:22.590Z,97436.53
2018-04-15T19:15:26.177Z,97440.78
2018-04-15T19:16:29.760Z,97443.97
2018-04-15T19:17:33.295Z,97429.09
2018-04-15T19:18:37.616Z,97444.29
2018-04-15T19:19:41.158Z,97444.34
2018-04-15T19:20:45.123Z,97432.25
2018-04-15T19:21:48.753Z,97447.09
2018-04-15T19:22:52.339Z,97448.30
2018-04-15T19:23:56.601Z,97444.49
2018-04-15T19:25:00.172Z,97436.20
2018-04-15T19:26:03.646Z,97447.12
2018-04-15T19:27:07.384Z,97408.36
2018-04-15T19:28:11.094Z,97452.72
2018-04-15T19:29:14.568Z,97445.80
2018-04-15T19:30:18.170Z,97458.58
2018-04-15T19:31:21.793Z,97443.51
2018-04-15T19:32:25.820Z,97449.20
2018-04-15T19:33:29.710Z,97457.36
2018-04-15T19:34:33.251Z,97453.61
2018-04-15T19:35:36.836Z,97450.68
2018-04-15T19:36:40.286Z,97454.39
2018-04-15T19:37:43.750Z,97434.98
2018-04-15T19:38:47.477Z,97441.91
2018-04-15T19:39:51.874Z,97437.22
2018-04-15T19:40:55.476Z,97447.50
2018-04-15T19:41:59.070Z,97448.79
2018-04-15T19:43:02.528Z,97447.99
2018-04-15T19:44:06.069Z,97450.17
2018-04-15T19:45:09.904Z,97440.53
2018-04-15T19:46:13.734Z,97447.03
2018-04-15T19:47:17.361Z,97447.20
2018-04-15T19:48:20.945Z,97443.59
2018-04-15T19:49:24.524Z,97416.70
2018-04-15T19:50:28.184Z,97433.05
2018-04-15T19:51:31.799Z,97429.52
2018-04-15T19:52:35.555Z,97445.00
2018-04-15T19:53:38.990Z,97421.73
2018-04-15T19:54:42.511Z,97422.27
2018-04-15T19:55:46.048Z,97446.99
2018-04-15T19:56:49.615Z,97450.88
2018-04-15T19:57:53.241Z,97441.97
2018-04-15T19:58:56.767Z,97463.63
2018-04-15T20:00:00.265Z,97453.54
2018-04-15T20:01:03.772Z,97452.34
2018-04-15T20:02:07.226Z,97429.32
2018-04-15T20:03:10.758Z,97420.20
2018-04-15T20:04:14.580Z,97449.81
2018-04-15T20:05:18.027Z,97432.30
2018-04-15T20:06:21.546Z,97461.00
2018-04-15T20:07:25.097Z,97463.72
2018-04-15T20:08:28.672Z,97458.58
2018-04-15T20:09:32.180Z,97448.53
2018-04-15T20:10:35.724Z,97418.45
2018-04-15T20:11:39.281Z,97436.95
2018-04-15T20:12:42.835Z,97446.72
2018-04-15T20:13:46.352Z,97433.59
2018-04-15T20:14:50.160Z,97456.97
2018-04-15T20:15:53.739Z,97445.38
2018-04-15T20:16:57.306Z,97458.67
2018-04-15T20:18:00.905Z,97454.80
2018-04-15T20:19:04.424Z,97461.42
2018-04-15T20:20:07.846Z,97462.20
2018-04-15T20:21:11.642Z,97456.56
2018-04-15T20:22:15.445Z,97454.41
2018-04-15T20:23:18.959Z,97447.67
2018-04-15T20:24:22.542Z,97459.28
2018-04-15T20:25:26.043Z,97420.86
2018-04-15T20:26:29.620Z,97443.96
2018-04-15T20:27:33.468Z,97441.64
2018-04-15T20:28:36.946Z,97423.27
2018-04-15T20:29:40.457Z,97467.84
2018-04-15T20:30:43.995Z,97451.44
2018-04-15T20:31:47.597Z,97443.36
2018-04-15T20:32:51.119Z,97337.98
2018-04-15T20:33:54.883Z,97446.20
2018-04-15T20:34:58.529Z,97458.12
2018-04-15T20:36:02.140Z,97462.55
2018-04-15T20:37:05.665Z,97437.77
2018-04-15T20:38:09.236Z,97466.80
2018-04-15T20:39:13.788Z,97458.91
2018-04-15T20:40:17.323Z,97418.59
2018-04-15T20:41:20.965Z,97464.52
2018-04-15T20:42:25.131Z,97408.00
2018-04-15T20:43:28.533Z,97459.55
2018-04-15T20:44:31.954Z,97455.59
2018-04-15T20:45:35.665Z,97452.92
2018-04-15T20:46:39.165Z,97459.02
2018-04-15T20:47:42.663Z,97457.27
2018-04-15T20:48:46.128Z,97414.97
2018-04-15T20:49:49.700Z,97455.45
2018-04-15T20:50:53.210Z,97458.69
2018-04-15T20:51:57.196Z,97458.16
2018-04-15T20:53:00.677Z,97461.69
2018-04-15T20:54:04.205Z,97468.03
2018-04-15T20:55:07.746Z,97475.61
2018-04-15T20:56:11.338Z,97444.23
2018-04-15T20:57:14.944Z,97473.81
2018-04-15T20:58:18.762Z,97477.38
2018-04-15T20:59:22.267Z,97465.59
2018-04-15T21:00:25.791Z,97466.37
2018-04-15T21:01:29.309Z,97457.11
2018-04-15T21:02:32.828Z,97459.40
2018-04-15T21:03:36.429Z,97488.06
2018-04-15T21:04:40.836Z,97373.02
2018-04-15T21:05:45.756Z,97370.61
2018-04-15T21:06:49.583Z,97483.73
2018-04-15T21:07:53.103Z,97455.20
2018-04-15T21:08:56.672Z,97471.20
2018-04-15T21:10:01.032Z,97476.36
2018-04-15T21:11:04.805Z,97445.06
2018-04-15T21:12:08.253Z,97468.77
2018-04-15T21:13:11.772Z,97447.91
2018-04-15T21:14:15.315Z,97485.07
2018-04-15T21:15:18.845Z,97469.41
2018-04-15T21:16:22.372Z,97448.36
2018-04-15T21:17:26.190Z,97460.67
2018-04-15T21:18:30.170Z,97483.31
2018-04-15T21:19:35.434Z,97479.86
2018-04-15T21:20:38.904Z,97464.93
2018-04-15T21:21:42.370Z,97473.44
2018-04-15T21:22:45.860Z,97478.08
2018-04-15T21:23:49.758Z,97462.03
2018-04-15T21:24:53.278Z,97480.04
2018-04-15T21:25:56.809Z,97475.77
2018-04-15T21:27:00.355Z,97474.04
2018-04-15T21:28:03.911Z,97461.03
2018-04-15T21:29:07.438Z,97457.14
2018-04-15T21:30:11.357Z,97479.39
2018-04-15T21:31:15.051Z,97476.38
2018-04-15T21:32:18.575Z,97479.05
2018-04-15T21:33:23.072Z,97472.12
2018-04-15T21:34:26.593Z,97475.06
2018-04-15T21:35:30.076Z,97474.91
2018-04-15T21:36:34.143Z,97474.31
2018-04-15T21:37:38.481Z,97472.12
2018-04-15T21:38:42.037Z,97471.94
2018-04-15T21:39:45.765Z,97434.81
2018-04-15T21:40:49.230Z,97444.64
2018-04-15T21:41:53.099Z,97472.40
2018-04-15T21:42:57.772Z,97474.08
2018-04-15T21:44:01.572Z,97434.20
2018-04-15T21:45:05.179Z,97476.57
2018-04-15T21:46:08.774Z,97475.28
2018-04-15T21:47:12.461Z,97481.10
2018-04-15T21:48:16.407Z,97478.86
2018-04-15T21:49:19.998Z,97480.38
2018-04-15T21:50:23.569Z,97477.17
